sensor_id;sensor_type;location;lat;lon;timestamp;temperature;humidity
25616;DHT22;13482;48.234;13.006;2022-08-18T00:04:38;23.70;57.40
25616;DHT22;13482;48.234;13.006;2022-08-18T00:07:27;23.60;57.50
25616;DHT22;13482;48.234;13.006;2022-08-18T00:09:57;23.60;57.70
25616;DHT22;13482;48.234;13.006;2022-08-18T00:12:39;23.50;57.60
25616;DHT22;13482;48.234;13.006;2022-08-18T00:15:12;23.50;59.40
25616;DHT22;13482;48.234;13.006;2022-08-18T00:17:40;23.50;58.20
25616;DHT22;13482;48.234;13.006;2022-08-18T00:20:17;23.40;58.10
25616;DHT22;13482;48.234;13.006;2022-08-18T00:22:47;23.40;59.00
25616;DHT22;13482;48.234;13.006;2022-08-18T00:25:17;23.40;58.30
25616;DHT22;13482;48.234;13.006;2022-08-18T00:27:45;23.30;58.40
25616;DHT22;13482;48.234;13.006;2022-08-18T00:30:16;23.30;58.50
25616;DHT22;13482;48.234;13.006;2022-08-18T00:33:03;23.30;58.60
25616;DHT22;13482;48.234;13.006;2022-08-18T00:35:34;23.30;59.60
25616;DHT22;13482;48.234;13.006;2022-08-18T00:38:07;23.30;58.40
25616;DHT22;13482;48.234;13.006;2022-08-18T00:40:52;23.30;58.50
25616;DHT22;13482;48.234;13.006;2022-08-18T00:43:53;23.30;58.40
25616;DHT22;13482;48.234;13.006;2022-08-18T00:46:27;23.30;59.50
25616;DHT22;13482;48.234;13.006;2022-08-18T00:48:56;23.30;59.00
25616;DHT22;13482;48.234;13.006;2022-08-18T00:54:19;23.20;58.90
25616;DHT22;13482;48.234;13.006;2022-08-18T00:56:56;23.20;59.10
25616;DHT22;13482;48.234;13.006;2022-08-18T01:02:06;23.20;59.10
25616;DHT22;13482;48.234;13.006;2022-08-18T01:04:50;23.20;58.70
25616;DHT22;13482;48.234;13.006;2022-08-18T01:07:29;23.20;59.00
25616;DHT22;13482;48.234;13.006;2022-08-18T01:10:00;23.20;58.80
25616;DHT22;13482;48.234;13.006;2022-08-18T01:12:31;23.20;58.50
25616;DHT22;13482;48.234;13.006;2022-08-18T01:15:13;23.20;58.60
25616;DHT22;13482;48.234;13.006;2022-08-18T01:17:59;23.20;58.70
25616;DHT22;13482;48.234;13.006;2022-08-18T01:20:58;23.20;58.70
25616;DHT22;13482;48.234;13.006;2022-08-18T01:23:46;23.20;58.50
25616;DHT22;13482;48.234;13.006;2022-08-18T01:26:15;23.30;58.20
25616;DHT22;13482;48.234;13.006;2022-08-18T01:28:45;23.20;58.50
25616;DHT22;13482;48.234;13.006;2022-08-18T01:31:33;23.20;58.50
25616;DHT22;13482;48.234;13.006;2022-08-18T01:34:09;23.20;59.40
25616;DHT22;13482;48.234;13.006;2022-08-18T01:36:38;23.20;58.90
25616;DHT22;13482;48.234;13.006;2022-08-18T01:39:11;23.20;58.70
25616;DHT22;13482;48.234;13.006;2022-08-18T01:41:39;23.20;58.70
25616;DHT22;13482;48.234;13.006;2022-08-18T01:44:07;23.20;58.70
25616;DHT22;13482;48.234;13.006;2022-08-18T01:46:39;23.20;58.70
25616;DHT22;13482;48.234;13.006;2022-08-18T01:49:09;23.20;58.70
25616;DHT22;13482;48.234;13.006;2022-08-18T01:51:36;23.30;58.70
25616;DHT22;13482;48.234;13.006;2022-08-18T01:54:12;23.30;58.60
25616;DHT22;13482;48.234;13.006;2022-08-18T01:56:41;23.30;58.90
25616;DHT22;13482;48.234;13.006;2022-08-18T01:59:10;23.30;58.60
25616;DHT22;13482;48.234;13.006;2022-08-18T02:01:42;23.30;58.60
25616;DHT22;13482;48.234;13.006;2022-08-18T02:04:20;23.30;58.90
25616;DHT22;13482;48.234;13.006;2022-08-18T02:07:01;23.40;58.80
25616;DHT22;13482;48.234;13.006;2022-08-18T02:09:30;23.40;59.30
25616;DHT22;13482;48.234;13.006;2022-08-18T02:11:57;23.40;59.30
25616;DHT22;13482;48.234;13.006;2022-08-18T02:14:25;23.40;60.30
25616;DHT22;13482;48.234;13.006;2022-08-18T02:16:57;23.40;60.70
25616;DHT22;13482;48.234;13.006;2022-08-18T02:19:33;23.40;62.00
25616;DHT22;13482;48.234;13.006;2022-08-18T02:22:06;23.40;62.20
25616;DHT22;13482;48.234;13.006;2022-08-18T02:24:35;23.40;61.90
25616;DHT22;13482;48.234;13.006;2022-08-18T02:27:03;23.50;62.20
25616;DHT22;13482;48.234;13.006;2022-08-18T02:29:31;23.50;62.30
25616;DHT22;13482;48.234;13.006;2022-08-18T02:31:59;23.50;62.50
25616;DHT22;13482;48.234;13.006;2022-08-18T02:34:26;23.50;62.20
25616;DHT22;13482;48.234;13.006;2022-08-18T02:36:53;23.50;62.30
25616;DHT22;13482;48.234;13.006;2022-08-18T02:39:20;23.50;62.40
25616;DHT22;13482;48.234;13.006;2022-08-18T02:41:48;23.50;63.00
25616;DHT22;13482;48.234;13.006;2022-08-18T02:44:15;23.50;62.80
25616;DHT22;13482;48.234;13.006;2022-08-18T02:46:42;23.50;62.90
25616;DHT22;13482;48.234;13.006;2022-08-18T02:49:10;23.50;63.00
25616;DHT22;13482;48.234;13.006;2022-08-18T02:51:38;23.50;63.10
25616;DHT22;13482;48.234;13.006;2022-08-18T02:54:05;23.50;63.30
25616;DHT22;13482;48.234;13.006;2022-08-18T02:56:35;23.50;63.30
25616;DHT22;13482;48.234;13.006;2022-08-18T02:59:10;23.40;63.50
25616;DHT22;13482;48.234;13.006;2022-08-18T03:01:47;23.40;63.60
25616;DHT22;13482;48.234;13.006;2022-08-18T03:04:23;23.40;63.90
25616;DHT22;13482;48.234;13.006;2022-08-18T03:07:00;23.40;64.20
25616;DHT22;13482;48.234;13.006;2022-08-18T03:09:29;23.30;64.10
25616;DHT22;13482;48.234;13.006;2022-08-18T03:11:58;23.30;63.90
25616;DHT22;13482;48.234;13.006;2022-08-18T03:14:25;23.30;64.10
25616;DHT22;13482;48.234;13.006;2022-08-18T03:16:52;23.20;64.20
25616;DHT22;13482;48.234;13.006;2022-08-18T03:19:28;23.20;64.00
25616;DHT22;13482;48.234;13.006;2022-08-18T03:21:57;23.20;64.80
25616;DHT22;13482;48.234;13.006;2022-08-18T03:24:29;23.20;64.00
25616;DHT22;13482;48.234;13.006;2022-08-18T03:26:59;23.10;64.10
25616;DHT22;13482;48.234;13.006;2022-08-18T03:29:27;23.10;64.20
25616;DHT22;13482;48.234;13.006;2022-08-18T03:31:59;23.10;64.40
25616;DHT22;13482;48.234;13.006;2022-08-18T03:34:28;23.00;64.30
25616;DHT22;13482;48.234;13.006;2022-08-18T03:36:55;23.00;64.50
25616;DHT22;13482;48.234;13.006;2022-08-18T03:39:23;23.00;64.60
25616;DHT22;13482;48.234;13.006;2022-08-18T03:41:51;22.90;64.70
25616;DHT22;13482;48.234;13.006;2022-08-18T03:44:33;22.90;65.20
25616;DHT22;13482;48.234;13.006;2022-08-18T03:47:10;22.90;65.90
25616;DHT22;13482;48.234;13.006;2022-08-18T03:49:37;22.90;66.50
25616;DHT22;13482;48.234;13.006;2022-08-18T03:52:07;22.80;65.70
25616;DHT22;13482;48.234;13.006;2022-08-18T03:54:36;22.70;66.10
25616;DHT22;13482;48.234;13.006;2022-08-18T03:57:07;22.70;66.10
25616;DHT22;13482;48.234;13.006;2022-08-18T03:59:36;22.70;66.50
25616;DHT22;13482;48.234;13.006;2022-08-18T04:02:04;22.60;66.10
25616;DHT22;13482;48.234;13.006;2022-08-18T04:04:32;22.60;66.00
25616;DHT22;13482;48.234;13.006;2022-08-18T04:07:11;22.60;66.10
25616;DHT22;13482;48.234;13.006;2022-08-18T04:09:40;22.60;67.30
25616;DHT22;13482;48.234;13.006;2022-08-18T04:12:14;22.60;66.00
25616;DHT22;13482;48.234;13.006;2022-08-18T04:14:45;22.60;66.70
25616;DHT22;13482;48.234;13.006;2022-08-18T04:17:16;22.50;66.10
25616;DHT22;13482;48.234;13.006;2022-08-18T04:19:53;22.50;66.10
25616;DHT22;13482;48.234;13.006;2022-08-18T04:22:21;22.50;66.10
25616;DHT22;13482;48.234;13.006;2022-08-18T04:24:49;22.50;66.30
25616;DHT22;13482;48.234;13.006;2022-08-18T04:27:18;22.50;66.30
25616;DHT22;13482;48.234;13.006;2022-08-18T04:29:47;22.50;66.40
25616;DHT22;13482;48.234;13.006;2022-08-18T04:32:14;22.50;66.40
25616;DHT22;13482;48.234;13.006;2022-08-18T04:34:42;22.40;66.50
25616;DHT22;13482;48.234;13.006;2022-08-18T04:37:09;22.40;66.60
25616;DHT22;13482;48.234;13.006;2022-08-18T04:39:37;22.40;66.60
25616;DHT22;13482;48.234;13.006;2022-08-18T04:42:04;22.40;66.60
25616;DHT22;13482;48.234;13.006;2022-08-18T04:44:32;22.40;66.70
25616;DHT22;13482;48.234;13.006;2022-08-18T04:47:01;22.40;66.80
25616;DHT22;13482;48.234;13.006;2022-08-18T04:49:28;22.40;66.90
25616;DHT22;13482;48.234;13.006;2022-08-18T04:51:57;22.50;67.20
25616;DHT22;13482;48.234;13.006;2022-08-18T04:55:04;22.50;67.10
25616;DHT22;13482;48.234;13.006;2022-08-18T04:57:33;22.50;67.00
25616;DHT22;13482;48.234;13.006;2022-08-18T05:00:02;22.60;67.40
25616;DHT22;13482;48.234;13.006;2022-08-18T05:02:31;22.60;67.30
25616;DHT22;13482;48.234;13.006;2022-08-18T05:04:59;22.70;67.30
25616;DHT22;13482;48.234;13.006;2022-08-18T05:07:29;22.80;67.50
25616;DHT22;13482;48.234;13.006;2022-08-18T05:09:56;22.80;67.50
25616;DHT22;13482;48.234;13.006;2022-08-18T05:12:24;22.90;67.50
25616;DHT22;13482;48.234;13.006;2022-08-18T05:14:53;23.00;67.50
25616;DHT22;13482;48.234;13.006;2022-08-18T05:17:23;23.10;67.50
25616;DHT22;13482;48.234;13.006;2022-08-18T05:19:58;23.20;67.60
25616;DHT22;13482;48.234;13.006;2022-08-18T05:22:27;23.30;67.60
25616;DHT22;13482;48.234;13.006;2022-08-18T05:24:57;23.40;67.70
25616;DHT22;13482;48.234;13.006;2022-08-18T05:27:33;23.50;67.60
25616;DHT22;13482;48.234;13.006;2022-08-18T05:30:03;23.60;68.00
25616;DHT22;13482;48.234;13.006;2022-08-18T05:32:38;23.70;67.70
25616;DHT22;13482;48.234;13.006;2022-08-18T05:35:34;23.80;67.80
25616;DHT22;13482;48.234;13.006;2022-08-18T05:39:25;23.90;68.40
25616;DHT22;13482;48.234;13.006;2022-08-18T05:41:33;24.10;68.60
25616;DHT22;13482;48.234;13.006;2022-08-18T05:44:05;24.20;67.40
25616;DHT22;13482;48.234;13.006;2022-08-18T05:46:41;24.30;67.30
25616;DHT22;13482;48.234;13.006;2022-08-18T05:49:14;24.40;67.30
25616;DHT22;13482;48.234;13.006;2022-08-18T05:51:45;24.50;67.00
25616;DHT22;13482;48.234;13.006;2022-08-18T05:54:24;24.60;67.10
25616;DHT22;13482;48.234;13.006;2022-08-18T05:57:18;24.70;66.90
25616;DHT22;13482;48.234;13.006;2022-08-18T05:59:48;24.80;66.90
25616;DHT22;13482;48.234;13.006;2022-08-18T06:05:43;24.90;66.90
25616;DHT22;13482;48.234;13.006;2022-08-18T06:07:57;24.90;66.70
25616;DHT22;13482;48.234;13.006;2022-08-18T06:10:27;25.00;66.60
25616;DHT22;13482;48.234;13.006;2022-08-18T06:12:57;25.10;66.40
25616;DHT22;13482;48.234;13.006;2022-08-18T06:18:11;25.30;66.80
25616;DHT22;13482;48.234;13.006;2022-08-18T06:27:20;25.30;65.80
25616;DHT22;13482;48.234;13.006;2022-08-18T06:35:50;25.60;66.40
25616;DHT22;13482;48.234;13.006;2022-08-18T06:44:12;26.10;65.50
25616;DHT22;13482;48.234;13.006;2022-08-18T06:49:58;26.30;65.20
25616;DHT22;13482;48.234;13.006;2022-08-18T06:52:35;26.40;64.80
25616;DHT22;13482;48.234;13.006;2022-08-18T06:55:17;26.40;64.90
25616;DHT22;13482;48.234;13.006;2022-08-18T06:58:04;26.50;64.70
25616;DHT22;13482;48.234;13.006;2022-08-18T07:00:43;26.50;64.60
25616;DHT22;13482;48.234;13.006;2022-08-18T07:03:39;26.60;64.70
25616;DHT22;13482;48.234;13.006;2022-08-18T07:08:53;26.70;64.30
25616;DHT22;13482;48.234;13.006;2022-08-18T07:11:28;26.80;64.30
25616;DHT22;13482;48.234;13.006;2022-08-18T07:16:43;26.90;64.10
25616;DHT22;13482;48.234;13.006;2022-08-18T07:19:30;26.90;63.90
25616;DHT22;13482;48.234;13.006;2022-08-18T07:22:13;26.90;63.80
25616;DHT22;13482;48.234;13.006;2022-08-18T07:24:49;27.00;63.60
25616;DHT22;13482;48.234;13.006;2022-08-18T07:32:49;27.20;63.40
25616;DHT22;13482;48.234;13.006;2022-08-18T07:35:51;27.20;63.30
25616;DHT22;13482;48.234;13.006;2022-08-18T07:38:21;27.30;63.40
25616;DHT22;13482;48.234;13.006;2022-08-18T07:41:18;27.40;63.30
25616;DHT22;13482;48.234;13.006;2022-08-18T07:44:20;27.50;63.50
25616;DHT22;13482;48.234;13.006;2022-08-18T07:46:58;27.60;63.80
25616;DHT22;13482;48.234;13.006;2022-08-18T07:49:33;27.70;63.60
25616;DHT22;13482;48.234;13.006;2022-08-18T07:52:23;27.80;63.30
25616;DHT22;13482;48.234;13.006;2022-08-18T08:06:32;28.50;62.20
25616;DHT22;13482;48.234;13.006;2022-08-18T08:18:11;28.70;61.30
25616;DHT22;13482;48.234;13.006;2022-08-18T08:20:57;28.70;61.60
25616;DHT22;13482;48.234;13.006;2022-08-18T08:24:02;28.80;61.70
25616;DHT22;13482;48.234;13.006;2022-08-18T08:27:10;28.90;61.30
25616;DHT22;13482;48.234;13.006;2022-08-18T08:30:05;29.00;61.70
25616;DHT22;13482;48.234;13.006;2022-08-18T08:35:44;29.40;61.70
25616;DHT22;13482;48.234;13.006;2022-08-18T08:41:46;29.70;60.40
25616;DHT22;13482;48.234;13.006;2022-08-18T08:44:55;29.80;60.20
25616;DHT22;13482;48.234;13.006;2022-08-18T08:50:29;30.00;59.20
25616;DHT22;13482;48.234;13.006;2022-08-18T08:53:11;30.00;59.60
25616;DHT22;13482;48.234;13.006;2022-08-18T08:55:51;30.00;59.70
25616;DHT22;13482;48.234;13.006;2022-08-18T08:58:44;30.00;60.10
25616;DHT22;13482;48.234;13.006;2022-08-18T09:11:02;30.70;60.10
25616;DHT22;13482;48.234;13.006;2022-08-18T09:24:54;31.50;58.90
25616;DHT22;13482;48.234;13.006;2022-08-18T09:34:02;31.80;57.90
25616;DHT22;13482;48.234;13.006;2022-08-18T09:36:46;32.00;58.60
25616;DHT22;13482;48.234;13.006;2022-08-18T09:39:25;32.10;58.70
25616;DHT22;13482;48.234;13.006;2022-08-18T09:42:50;32.30;58.70
25616;DHT22;13482;48.234;13.006;2022-08-18T09:48:26;32.90;56.70
25616;DHT22;13482;48.234;13.006;2022-08-18T09:53:52;33.20;57.20
25616;DHT22;13482;48.234;13.006;2022-08-18T10:02:03;33.60;55.00
25616;DHT22;13482;48.234;13.006;2022-08-18T10:25:08;34.00;54.10
25616;DHT22;13482;48.234;13.006;2022-08-18T10:27:52;34.00;54.30
25616;DHT22;13482;48.234;13.006;2022-08-18T10:39:46;34.10;53.80
25616;DHT22;13482;48.234;13.006;2022-08-18T10:42:28;34.10;53.80
25616;DHT22;13482;48.234;13.006;2022-08-18T10:48:07;34.20;53.90
25616;DHT22;13482;48.234;13.006;2022-08-18T10:51:15;34.30;53.10
25616;DHT22;13482;48.234;13.006;2022-08-18T10:53:58;34.40;52.70
25616;DHT22;13482;48.234;13.006;2022-08-18T10:56:48;34.50;53.10
25616;DHT22;13482;48.234;13.006;2022-08-18T10:59:29;34.60;53.00
25616;DHT22;13482;48.234;13.006;2022-08-18T11:05:19;34.80;52.80
25616;DHT22;13482;48.234;13.006;2022-08-18T11:07:56;34.90;52.50
25616;DHT22;13482;48.234;13.006;2022-08-18T11:10:44;35.00;52.10
25616;DHT22;13482;48.234;13.006;2022-08-18T11:13:49;35.20;51.10
25616;DHT22;13482;48.234;13.006;2022-08-18T11:16:42;35.30;51.60
25616;DHT22;13482;48.234;13.006;2022-08-18T11:19:20;35.40;51.70
25616;DHT22;13482;48.234;13.006;2022-08-18T11:21:50;35.50;51.50
25616;DHT22;13482;48.234;13.006;2022-08-18T11:24:25;35.60;51.30
25616;DHT22;13482;48.234;13.006;2022-08-18T11:26:55;35.70;50.90
25616;DHT22;13482;48.234;13.006;2022-08-18T11:29:40;35.70;50.60
25616;DHT22;13482;48.234;13.006;2022-08-18T11:32:25;35.80;50.40
25616;DHT22;13482;48.234;13.006;2022-08-18T11:46:15;35.70;49.50
25616;DHT22;13482;48.234;13.006;2022-08-18T11:48:58;35.70;48.70
25616;DHT22;13482;48.234;13.006;2022-08-18T11:51:30;35.60;49.30
25616;DHT22;13482;48.234;13.006;2022-08-18T11:56:41;35.50;49.50
25616;DHT22;13482;48.234;13.006;2022-08-18T12:02:16;35.60;48.70
25616;DHT22;13482;48.234;13.006;2022-08-18T12:04:49;35.70;49.30
25616;DHT22;13482;48.234;13.006;2022-08-18T12:07:34;35.80;49.00
25616;DHT22;13482;48.234;13.006;2022-08-18T12:12:54;36.00;48.40
25616;DHT22;13482;48.234;13.006;2022-08-18T12:15:32;36.10;48.90
25616;DHT22;13482;48.234;13.006;2022-08-18T12:18:10;36.20;48.80
25616;DHT22;13482;48.234;13.006;2022-08-18T12:20:52;36.20;48.80
25616;DHT22;13482;48.234;13.006;2022-08-18T12:23:19;36.20;48.80
25616;DHT22;13482;48.234;13.006;2022-08-18T12:25:46;36.20;48.80
25616;DHT22;13482;48.234;13.006;2022-08-18T12:28:34;36.20;48.70
25616;DHT22;13482;48.234;13.006;2022-08-18T12:31:01;36.30;48.90
25616;DHT22;13482;48.234;13.006;2022-08-18T12:33:40;36.30;49.00
25616;DHT22;13482;48.234;13.006;2022-08-18T12:36:25;36.40;49.00
25616;DHT22;13482;48.234;13.006;2022-08-18T12:38:54;36.50;49.10
25616;DHT22;13482;48.234;13.006;2022-08-18T12:41:23;36.60;48.80
25616;DHT22;13482;48.234;13.006;2022-08-18T12:43:50;36.60;48.60
25616;DHT22;13482;48.234;13.006;2022-08-18T12:46:25;36.60;48.30
25616;DHT22;13482;48.234;13.006;2022-08-18T12:48:52;36.60;48.50
25616;DHT22;13482;48.234;13.006;2022-08-18T12:51:20;36.60;48.20
25616;DHT22;13482;48.234;13.006;2022-08-18T12:53:56;36.60;48.30
25616;DHT22;13482;48.234;13.006;2022-08-18T12:56:28;36.60;48.30
25616;DHT22;13482;48.234;13.006;2022-08-18T12:58:58;36.70;48.10
25616;DHT22;13482;48.234;13.006;2022-08-18T13:01:31;36.70;48.20
25616;DHT22;13482;48.234;13.006;2022-08-18T13:03:59;36.80;48.10
25616;DHT22;13482;48.234;13.006;2022-08-18T13:06:41;36.70;48.20
25616;DHT22;13482;48.234;13.006;2022-08-18T13:09:29;36.80;48.20
25616;DHT22;13482;48.234;13.006;2022-08-18T13:12:17;36.90;48.50
25616;DHT22;13482;48.234;13.006;2022-08-18T13:14:46;37.00;48.30
25616;DHT22;13482;48.234;13.006;2022-08-18T13:17:16;37.20;48.20
25616;DHT22;13482;48.234;13.006;2022-08-18T13:19:59;37.30;48.30
25616;DHT22;13482;48.234;13.006;2022-08-18T13:22:33;37.50;48.40
25616;DHT22;13482;48.234;13.006;2022-08-18T13:25:02;37.50;47.80
25616;DHT22;13482;48.234;13.006;2022-08-18T13:27:33;37.50;47.30
25616;DHT22;13482;48.234;13.006;2022-08-18T13:30:09;37.50;47.50
25616;DHT22;13482;48.234;13.006;2022-08-18T13:32:58;37.50;47.20
25616;DHT22;13482;48.234;13.006;2022-08-18T13:35:33;37.40;47.10
25616;DHT22;13482;48.234;13.006;2022-08-18T13:38:14;37.30;46.80
25616;DHT22;13482;48.234;13.006;2022-08-18T13:40:53;37.10;46.90
25616;DHT22;13482;48.234;13.006;2022-08-18T13:43:26;37.00;47.00
25616;DHT22;13482;48.234;13.006;2022-08-18T13:45:56;36.90;46.80
25616;DHT22;13482;48.234;13.006;2022-08-18T13:48:24;36.70;46.90
25616;DHT22;13482;48.234;13.006;2022-08-18T13:50:53;36.60;46.90
25616;DHT22;13482;48.234;13.006;2022-08-18T13:53:22;36.50;47.10
25616;DHT22;13482;48.234;13.006;2022-08-18T13:55:54;36.30;47.00
25616;DHT22;13482;48.234;13.006;2022-08-18T13:58:26;36.10;47.10
25616;DHT22;13482;48.234;13.006;2022-08-18T14:01:00;35.90;47.30
25616;DHT22;13482;48.234;13.006;2022-08-18T14:03:50;35.70;47.20
25616;DHT22;13482;48.234;13.006;2022-08-18T14:06:18;35.60;47.60
25616;DHT22;13482;48.234;13.006;2022-08-18T14:08:52;35.50;47.60
25616;DHT22;13482;48.234;13.006;2022-08-18T14:11:27;35.40;47.70
25616;DHT22;13482;48.234;13.006;2022-08-18T14:14:00;35.30;47.80
25616;DHT22;13482;48.234;13.006;2022-08-18T14:16:28;35.10;48.00
25616;DHT22;13482;48.234;13.006;2022-08-18T14:18:56;35.00;48.20
25616;DHT22;13482;48.234;13.006;2022-08-18T14:21:46;34.90;48.50
25616;DHT22;13482;48.234;13.006;2022-08-18T14:24:38;34.80;48.70
25616;DHT22;13482;48.234;13.006;2022-08-18T14:27:31;34.80;48.70
25616;DHT22;13482;48.234;13.006;2022-08-18T14:30:09;34.80;49.00
25616;DHT22;13482;48.234;13.006;2022-08-18T14:32:40;34.90;49.10
25616;DHT22;13482;48.234;13.006;2022-08-18T14:35:23;34.90;48.90
25616;DHT22;13482;48.234;13.006;2022-08-18T14:38:10;35.00;49.00
25616;DHT22;13482;48.234;13.006;2022-08-18T14:40:39;35.10;49.10
25616;DHT22;13482;48.234;13.006;2022-08-18T14:43:12;35.20;48.90
25616;DHT22;13482;48.234;13.006;2022-08-18T14:45:42;35.30;48.90
25616;DHT22;13482;48.234;13.006;2022-08-18T14:48:19;35.30;48.60
25616;DHT22;13482;48.234;13.006;2022-08-18T14:50:50;35.40;48.20
25616;DHT22;13482;48.234;13.006;2022-08-18T14:53:23;35.40;48.30
25616;DHT22;13482;48.234;13.006;2022-08-18T14:55:56;35.40;48.30
25616;DHT22;13482;48.234;13.006;2022-08-18T14:58:27;35.30;48.60
25616;DHT22;13482;48.234;13.006;2022-08-18T15:01:01;35.30;48.60
25616;DHT22;13482;48.234;13.006;2022-08-18T15:03:36;35.30;48.30
25616;DHT22;13482;48.234;13.006;2022-08-18T15:06:05;35.30;48.30
25616;DHT22;13482;48.234;13.006;2022-08-18T15:08:35;35.30;48.20
25616;DHT22;13482;48.234;13.006;2022-08-18T15:11:05;35.30;48.10
25616;DHT22;13482;48.234;13.006;2022-08-18T15:13:39;35.30;48.10
25616;DHT22;13482;48.234;13.006;2022-08-18T15:16:10;35.30;48.30
25616;DHT22;13482;48.234;13.006;2022-08-18T15:18:45;35.40;48.10
25616;DHT22;13482;48.234;13.006;2022-08-18T15:21:14;35.30;47.90
25616;DHT22;13482;48.234;13.006;2022-08-18T15:24:05;35.30;48.00
25616;DHT22;13482;48.234;13.006;2022-08-18T15:26:56;35.30;47.90
25616;DHT22;13482;48.234;13.006;2022-08-18T15:29:35;35.20;47.80
25616;DHT22;13482;48.234;13.006;2022-08-18T15:32:10;35.20;47.90
25616;DHT22;13482;48.234;13.006;2022-08-18T15:34:43;35.10;47.90
25616;DHT22;13482;48.234;13.006;2022-08-18T15:37:18;35.00;47.90
25616;DHT22;13482;48.234;13.006;2022-08-18T15:39:59;34.90;48.00
25616;DHT22;13482;48.234;13.006;2022-08-18T15:42:29;34.90;48.00
25616;DHT22;13482;48.234;13.006;2022-08-18T15:45:00;34.80;48.00
25616;DHT22;13482;48.234;13.006;2022-08-18T15:47:39;34.80;48.00
25616;DHT22;13482;48.234;13.006;2022-08-18T15:50:09;34.70;48.10
25616;DHT22;13482;48.234;13.006;2022-08-18T15:53:00;34.70;48.10
25616;DHT22;13482;48.234;13.006;2022-08-18T15:55:34;34.60;48.20
25616;DHT22;13482;48.234;13.006;2022-08-18T15:58:03;34.50;48.20
25616;DHT22;13482;48.234;13.006;2022-08-18T16:00:41;34.50;48.30
25616;DHT22;13482;48.234;13.006;2022-08-18T16:03:11;34.40;48.30
25616;DHT22;13482;48.234;13.006;2022-08-18T16:05:47;34.40;48.40
25616;DHT22;13482;48.234;13.006;2022-08-18T16:08:20;34.40;48.40
25616;DHT22;13482;48.234;13.006;2022-08-18T16:10:49;34.30;48.50
25616;DHT22;13482;48.234;13.006;2022-08-18T16:13:18;34.30;48.50
25616;DHT22;13482;48.234;13.006;2022-08-18T16:15:47;34.20;48.40
25616;DHT22;13482;48.234;13.006;2022-08-18T16:18:17;34.20;48.40
25616;DHT22;13482;48.234;13.006;2022-08-18T16:20:46;34.10;48.50
25616;DHT22;13482;48.234;13.006;2022-08-18T16:23:18;34.10;48.50
25616;DHT22;13482;48.234;13.006;2022-08-18T16:25:45;34.10;48.50
25616;DHT22;13482;48.234;13.006;2022-08-18T16:28:13;34.00;48.70
25616;DHT22;13482;48.234;13.006;2022-08-18T16:30:42;34.10;49.00
25616;DHT22;13482;48.234;13.006;2022-08-18T16:33:12;34.10;49.50
25616;DHT22;13482;48.234;13.006;2022-08-18T16:35:39;34.30;50.10
25616;DHT22;13482;48.234;13.006;2022-08-18T16:38:11;34.70;50.30
25616;DHT22;13482;48.234;13.006;2022-08-18T16:40:40;35.10;50.40
25616;DHT22;13482;48.234;13.006;2022-08-18T16:43:07;35.60;49.60
25616;DHT22;13482;48.234;13.006;2022-08-18T16:45:37;35.90;48.90
25616;DHT22;13482;48.234;13.006;2022-08-18T16:48:06;36.10;48.40
25616;DHT22;13482;48.234;13.006;2022-08-18T16:50:35;36.30;48.00
25616;DHT22;13482;48.234;13.006;2022-08-18T16:53:03;36.40;47.50
25616;DHT22;13482;48.234;13.006;2022-08-18T16:55:31;36.40;47.30
25616;DHT22;13482;48.234;13.006;2022-08-18T16:58:00;36.40;47.20
25616;DHT22;13482;48.234;13.006;2022-08-18T17:00:45;36.40;47.30
25616;DHT22;13482;48.234;13.006;2022-08-18T17:03:32;36.50;47.70
25616;DHT22;13482;48.234;13.006;2022-08-18T17:06:18;36.60;48.00
25616;DHT22;13482;48.234;13.006;2022-08-18T17:08:45;36.90;47.90
25616;DHT22;13482;48.234;13.006;2022-08-18T17:11:15;37.10;47.80
25616;DHT22;13482;48.234;13.006;2022-08-18T17:13:46;37.30;47.30
25616;DHT22;13482;48.234;13.006;2022-08-18T17:16:17;37.50;47.20
25616;DHT22;13482;48.234;13.006;2022-08-18T17:18:44;37.60;46.90
25616;DHT22;13482;48.234;13.006;2022-08-18T17:21:15;37.70;46.60
25616;DHT22;13482;48.234;13.006;2022-08-18T17:23:45;37.70;46.40
25616;DHT22;13482;48.234;13.006;2022-08-18T17:32:58;37.20;45.80
25616;DHT22;13482;48.234;13.006;2022-08-18T17:35:34;36.80;46.00
25616;DHT22;13482;48.234;13.006;2022-08-18T17:38:25;36.50;46.10
25616;DHT22;13482;48.234;13.006;2022-08-18T17:40:58;36.10;46.30
25616;DHT22;13482;48.234;13.006;2022-08-18T17:43:35;35.70;46.40
25616;DHT22;13482;48.234;13.006;2022-08-18T17:46:24;35.40;46.90
25616;DHT22;13482;48.234;13.006;2022-08-18T17:49:12;35.00;47.10
25616;DHT22;13482;48.234;13.006;2022-08-18T17:51:48;34.70;47.50
25616;DHT22;13482;48.234;13.006;2022-08-18T17:54:38;34.30;47.60
25616;DHT22;13482;48.234;13.006;2022-08-18T17:57:12;34.10;48.30
25616;DHT22;13482;48.234;13.006;2022-08-18T18:00:00;33.70;48.50
25616;DHT22;13482;48.234;13.006;2022-08-18T18:02:39;33.50;49.10
25616;DHT22;13482;48.234;13.006;2022-08-18T18:05:09;33.20;49.10
25616;DHT22;13482;48.234;13.006;2022-08-18T18:13:30;32.40;50.20
25616;DHT22;13482;48.234;13.006;2022-08-18T18:16:20;32.20;49.80
25616;DHT22;13482;48.234;13.006;2022-08-18T18:19:04;31.90;50.50
25616;DHT22;13482;48.234;13.006;2022-08-18T18:21:34;31.70;50.30
25616;DHT22;13482;48.234;13.006;2022-08-18T18:24:29;31.40;50.80
25616;DHT22;13482;48.234;13.006;2022-08-18T18:26:58;31.20;51.60
25616;DHT22;13482;48.234;13.006;2022-08-18T18:29:30;31.00;51.50
25616;DHT22;13482;48.234;13.006;2022-08-18T18:34:44;30.60;52.00
25616;DHT22;13482;48.234;13.006;2022-08-18T18:38:05;30.50;52.10
25616;DHT22;13482;48.234;13.006;2022-08-18T18:41:00;30.30;53.20
25616;DHT22;13482;48.234;13.006;2022-08-18T18:43:34;30.10;53.30
25616;DHT22;13482;48.234;13.006;2022-08-18T18:46:30;29.90;52.90
25616;DHT22;13482;48.234;13.006;2022-08-18T18:54:54;29.40;54.80
25616;DHT22;13482;48.234;13.006;2022-08-18T18:57:40;29.20;54.40
25616;DHT22;13482;48.234;13.006;2022-08-18T19:00:45;29.00;54.00
25616;DHT22;13482;48.234;13.006;2022-08-18T19:03:36;28.80;55.20
25616;DHT22;13482;48.234;13.006;2022-08-18T19:06:28;28.70;55.40
25616;DHT22;13482;48.234;13.006;2022-08-18T19:14:35;28.30;55.00
25616;DHT22;13482;48.234;13.006;2022-08-18T19:17:14;28.20;55.40
25616;DHT22;13482;48.234;13.006;2022-08-18T19:20:41;28.10;55.70
25616;DHT22;13482;48.234;13.006;2022-08-18T19:26:16;27.80;55.60
25616;DHT22;13482;48.234;13.006;2022-08-18T19:28:57;27.70;56.00
25616;DHT22;13482;48.234;13.006;2022-08-18T19:31:46;27.60;56.10